createdAt,value
2018-09-29T00:01:08.940Z,10.70
2018-09-29T00:03:37.398Z,10.70
2018-09-29T00:06:05.900Z,10.70
2018-09-29T00:08:34.352Z,10.60
2018-09-29T00:11:02.857Z,10.60
2018-09-29T00:13:31.308Z,10.70
2018-09-29T00:15:59.795Z,10.70
2018-09-29T00:18:28.261Z,10.70
2018-09-29T00:20:56.769Z,10.80
2018-09-29T00:23:25.286Z,10.60
2018-09-29T00:25:53.795Z,10.60
2018-09-29T00:28:22.284Z,10.60
2018-09-29T00:30:50.935Z,10.70
2018-09-29T00:33:19.382Z,10.80
2018-09-29T00:35:47.868Z,10.70
2018-09-29T00:38:16.385Z,10.70
2018-09-29T00:40:44.891Z,10.60
2018-09-29T00:43:14.285Z,10.50
2018-09-29T00:45:42.792Z,10.50
2018-09-29T00:48:11.268Z,10.50
2018-09-29T00:50:39.740Z,10.60
2018-09-29T00:53:08.258Z,10.50
2018-09-29T00:55:36.748Z,10.50
2018-09-29T00:58:05.201Z,10.40
2018-09-29T01:00:33.727Z,10.30
2018-09-29T01:03:02.168Z,10.30
2018-09-29T01:05:30.630Z,10.40
2018-09-29T01:07:59.077Z,10.30
2018-09-29T01:10:27.544Z,10.30
2018-09-29T01:12:55.984Z,10.30
2018-09-29T01:15:24.464Z,10.40
2018-09-29T01:17:52.900Z,10.30
2018-09-29T01:20:21.388Z,10.20
2018-09-29T01:22:49.845Z,10.20
2018-09-29T01:25:18.347Z,10.10
2018-09-29T01:27:46.838Z,10.10
2018-09-29T01:30:15.309Z,10.20
2018-09-29T01:32:43.802Z,10.20
2018-09-29T01:35:12.218Z,10.20
2018-09-29T01:37:40.679Z,10.20
2018-09-29T01:40:09.153Z,10.20
2018-09-29T01:42:37.655Z,10.20
2018-09-29T01:45:06.293Z,10.30
2018-09-29T01:47:34.796Z,10.20
2018-09-29T01:50:03.305Z,10.20
2018-09-29T01:52:31.728Z,10.10
2018-09-29T01:55:00.556Z,10.10
2018-09-29T01:57:29.231Z,10.00
2018-09-29T01:59:57.963Z,10.00
2018-09-29T02:02:26.410Z,10.00
2018-09-29T02:04:55.286Z,10.00
2018-09-29T02:07:24.404Z,10.10
2018-09-29T02:09:52.852Z,10.00
2018-09-29T02:12:21.314Z,9.80
2018-09-29T02:14:49.743Z,9.80
2018-09-29T02:17:18.230Z,9.80
2018-09-29T02:19:46.715Z,9.70
2018-09-29T02:22:15.121Z,9.80
2018-09-29T02:24:43.549Z,9.80
2018-09-29T02:27:12.061Z,9.60
2018-09-29T02:29:40.584Z,9.70
2018-09-29T02:32:09.044Z,9.60
2018-09-29T02:34:37.642Z,9.70
2018-09-29T02:37:06.550Z,9.70
2018-09-29T02:39:35.462Z,9.60
2018-09-29T02:42:04.147Z,9.70
2018-09-29T02:44:32.892Z,9.60
2018-09-29T02:47:02.501Z,9.60
2018-09-29T02:49:31.517Z,9.50
2018-09-29T02:52:00.056Z,9.50
2018-09-29T02:54:28.859Z,9.50
2018-09-29T02:56:57.652Z,9.40
2018-09-29T02:59:26.365Z,9.30
2018-09-29T03:01:55.072Z,9.30
2018-09-29T03:04:23.890Z,9.30
2018-09-29T03:06:52.750Z,9.20
2018-09-29T03:09:21.624Z,9.30
2018-09-29T03:11:50.458Z,9.30
2018-09-29T03:14:19.175Z,9.20
2018-09-29T03:16:48.120Z,9.00
2018-09-29T03:19:16.957Z,9.00
2018-09-29T03:21:45.743Z,9.10
2018-09-29T03:24:14.698Z,9.10
2018-09-29T03:26:43.447Z,9.20
2018-09-29T03:29:11.917Z,9.20
2018-09-29T03:31:40.416Z,9.20
2018-09-29T03:34:08.963Z,9.10
2018-09-29T03:36:37.443Z,9.10
2018-09-29T03:39:08.226Z,9.10
2018-09-29T03:41:36.989Z,9.20
2018-09-29T03:44:05.505Z,9.20
2018-09-29T03:46:33.970Z,9.20
2018-09-29T03:49:02.368Z,9.20
2018-09-29T03:51:30.784Z,9.20
2018-09-29T03:53:59.361Z,9.20
2018-09-29T03:56:27.823Z,9.20
2018-09-29T03:58:56.323Z,9.20
2018-09-29T04:01:24.827Z,9.20
2018-09-29T04:03:53.400Z,9.10
2018-09-29T04:06:22.389Z,9.10
2018-09-29T04:08:50.880Z,9.10
2018-09-29T04:11:19.327Z,9.10
2018-09-29T04:13:47.832Z,9.10
2018-09-29T04:16:16.273Z,9.00
2018-09-29T04:18:44.707Z,9.00
2018-09-29T04:21:13.178Z,9.10
2018-09-29T04:23:41.626Z,9.00
2018-09-29T04:26:10.169Z,9.00
2018-09-29T04:28:38.659Z,8.90
2018-09-29T04:31:07.154Z,9.10
2018-09-29T04:33:35.655Z,9.00
2018-09-29T04:36:04.175Z,9.00
2018-09-29T04:38:32.625Z,9.00
2018-09-29T04:41:01.077Z,8.90
2018-09-29T04:43:29.720Z,8.90
2018-09-29T04:45:58.184Z,9.00
2018-09-29T04:48:26.614Z,9.00
2018-09-29T04:50:55.053Z,8.80
2018-09-29T04:53:23.478Z,8.80
2018-09-29T04:55:51.941Z,8.80
2018-09-29T04:58:20.417Z,8.70
2018-09-29T05:00:49.006Z,8.70
2018-09-29T05:03:17.444Z,8.80
2018-09-29T05:05:45.848Z,8.80
2018-09-29T05:08:14.277Z,8.80
2018-09-29T05:10:42.693Z,8.70
2018-09-29T05:13:11.169Z,8.70
2018-09-29T05:15:39.629Z,8.60
2018-09-29T05:18:08.086Z,8.60
2018-09-29T05:20:36.578Z,8.70
2018-09-29T05:23:05.072Z,8.60
2018-09-29T05:25:33.529Z,8.60
2018-09-29T05:28:02.005Z,8.60
2018-09-29T05:30:30.468Z,8.50
2018-09-29T05:32:58.935Z,8.50
2018-09-29T05:35:27.411Z,8.50
2018-09-29T05:37:55.867Z,8.60
2018-09-29T05:40:24.357Z,8.60
2018-09-29T05:42:52.834Z,8.60
2018-09-29T05:45:21.328Z,8.60
2018-09-29T05:47:49.810Z,8.60
2018-09-29T05:50:18.431Z,8.50
2018-09-29T05:52:46.916Z,8.50
2018-09-29T05:55:15.433Z,8.60
2018-09-29T05:57:43.910Z,8.60
2018-09-29T06:00:12.443Z,8.60
2018-09-29T06:02:40.838Z,8.70
2018-09-29T06:05:09.365Z,8.60
2018-09-29T06:07:37.807Z,8.50
2018-09-29T06:10:06.335Z,8.70
2018-09-29T06:12:34.765Z,8.60
2018-09-29T06:15:03.272Z,8.60
2018-09-29T06:17:31.766Z,8.60
2018-09-29T06:20:00.287Z,8.60
2018-09-29T06:22:28.745Z,8.60
2018-09-29T06:24:57.265Z,8.60
2018-09-29T06:27:25.709Z,8.60
2018-09-29T06:29:54.155Z,8.60
2018-09-29T06:32:22.616Z,8.70
2018-09-29T06:34:51.106Z,8.80
2018-09-29T06:37:19.563Z,8.80
2018-09-29T06:39:48.050Z,8.90
2018-09-29T06:42:16.469Z,8.90
2018-09-29T06:44:44.983Z,9.00
2018-09-29T06:47:13.492Z,9.10
2018-09-29T06:49:42.060Z,9.20
2018-09-29T06:52:10.533Z,9.30
2018-09-29T06:54:39.062Z,9.40
2018-09-29T06:57:07.480Z,9.30
2018-09-29T06:59:36.981Z,9.40
2018-09-29T07:02:05.445Z,9.50
2018-09-29T07:04:33.921Z,9.50
2018-09-29T07:07:02.381Z,9.60
2018-09-29T07:09:30.845Z,9.70
2018-09-29T07:11:59.310Z,9.80
2018-09-29T07:14:27.772Z,9.90
2018-09-29T07:16:56.248Z,9.80
2018-09-29T07:19:24.726Z,10.00
2018-09-29T07:21:53.245Z,10.10
2018-09-29T07:24:21.657Z,10.20
2018-09-29T07:26:50.065Z,10.40
2018-09-29T07:29:18.577Z,10.50
2018-09-29T07:31:47.024Z,10.60
2018-09-29T07:34:15.445Z,10.80
2018-09-29T07:36:44.243Z,10.90
2018-09-29T07:39:12.765Z,11.10
2018-09-29T07:41:41.319Z,11.30
2018-09-29T07:44:10.517Z,11.40
2018-09-29T07:46:39.137Z,11.60
2018-09-29T07:49:07.900Z,11.80
2018-09-29T07:51:38.384Z,12.10
2018-09-29T07:54:06.926Z,12.10
2018-09-29T07:56:35.381Z,12.20
2018-09-29T07:59:03.915Z,12.20
2018-09-29T08:01:32.410Z,12.50
2018-09-29T08:04:00.906Z,12.90
2018-09-29T08:06:29.515Z,12.90
2018-09-29T08:08:57.988Z,12.90
2018-09-29T08:11:26.516Z,12.60
2018-09-29T08:13:55.104Z,12.90
2018-09-29T08:16:23.628Z,13.10
2018-09-29T08:18:52.084Z,13.20
2018-09-29T08:21:20.721Z,13.50
2018-09-29T08:23:49.615Z,13.40
2018-09-29T08:26:18.347Z,13.50
2018-09-29T08:28:46.870Z,13.90
2018-09-29T08:31:15.378Z,14.30
2018-09-29T08:33:44.230Z,14.10
2018-09-29T08:36:12.712Z,14.00
2018-09-29T08:38:41.181Z,14.00
2018-09-29T08:41:09.729Z,13.90
2018-09-29T08:43:38.195Z,13.90
2018-09-29T08:46:07.093Z,14.60
2018-09-29T08:48:35.525Z,14.80
2018-09-29T08:51:03.972Z,15.20
2018-09-29T08:53:32.471Z,15.50
2018-09-29T08:56:00.944Z,15.70
2018-09-29T08:58:29.404Z,16.00
2018-09-29T09:00:57.922Z,15.20
2018-09-29T09:03:26.359Z,14.90
2018-09-29T09:05:54.845Z,15.20
2018-09-29T09:08:23.305Z,15.40
2018-09-29T09:10:51.965Z,16.10
2018-09-29T09:13:20.410Z,15.90
2018-09-29T09:15:48.909Z,15.90
2018-09-29T09:18:17.364Z,16.10
2018-09-29T09:20:46.934Z,15.70
2018-09-29T09:23:16.422Z,15.20
2018-09-29T09:25:44.902Z,15.40
2018-09-29T09:28:13.559Z,15.30
2018-09-29T09:30:42.119Z,16.00
2018-09-29T09:33:10.667Z,15.60
2018-09-29T09:35:39.168Z,15.00
2018-09-29T09:38:07.706Z,15.40
2018-09-29T09:40:36.216Z,15.50
2018-09-29T09:43:06.006Z,15.20
2018-09-29T09:45:34.445Z,15.40
2018-09-29T09:48:02.909Z,15.30
2018-09-29T09:50:31.425Z,15.40
2018-09-29T09:52:59.916Z,15.10
2018-09-29T09:55:28.469Z,14.40
2018-09-29T09:57:57.020Z,14.30
2018-09-29T10:00:30.793Z,14.30
2018-09-29T10:03:04.573Z,14.60
2018-09-29T10:05:33.165Z,14.50
2018-09-29T10:08:01.809Z,15.00
2018-09-29T10:10:30.323Z,15.20
2018-09-29T10:12:58.818Z,15.10
2018-09-29T10:15:27.931Z,15.20
2018-09-29T10:17:56.466Z,15.40
2018-09-29T10:20:24.970Z,15.60
2018-09-29T10:22:53.540Z,15.60
2018-09-29T10:25:23.791Z,15.20
2018-09-29T10:27:52.313Z,15.20
2018-09-29T10:30:20.855Z,15.00
2018-09-29T10:32:50.075Z,14.80
2018-09-29T10:35:19.404Z,15.00
2018-09-29T10:37:47.889Z,14.80
2018-09-29T10:40:16.424Z,14.80
2018-09-29T10:42:44.997Z,15.10
2018-09-29T10:45:13.500Z,15.30
2018-09-29T10:47:42.122Z,15.30
2018-09-29T10:50:10.761Z,15.10
2018-09-29T10:52:40.033Z,15.10
2018-09-29T10:55:08.585Z,15.20
2018-09-29T10:57:37.191Z,15.30
2018-09-29T11:00:06.010Z,15.10
2018-09-29T11:02:34.615Z,15.40
2018-09-29T11:05:03.756Z,15.50
2018-09-29T11:07:32.279Z,15.50
2018-09-29T11:10:00.839Z,15.70
2018-09-29T11:12:29.373Z,15.60
2018-09-29T11:14:57.991Z,15.60
2018-09-29T11:17:26.545Z,15.30
2018-09-29T11:19:55.054Z,15.80
2018-09-29T11:22:23.686Z,16.00
2018-09-29T11:24:52.219Z,16.30
2018-09-29T11:27:20.802Z,16.50
2018-09-29T11:29:49.272Z,16.30
2018-09-29T11:32:17.768Z,16.40
2018-09-29T11:34:46.349Z,16.80
2018-09-29T11:37:14.917Z,17.30
2018-09-29T11:39:43.428Z,17.80
2018-09-29T11:42:11.985Z,17.30
2018-09-29T11:44:40.534Z,17.00
2018-09-29T11:47:09.165Z,17.30
2018-09-29T11:49:37.746Z,17.60
2018-09-29T11:52:06.373Z,17.70
2018-09-29T11:54:34.923Z,17.70
2018-09-29T11:57:03.548Z,18.10
2018-09-29T11:59:32.069Z,18.60
2018-09-29T12:02:00.611Z,18.50
2018-09-29T12:04:29.182Z,18.60
2018-09-29T12:06:57.750Z,18.30
2018-09-29T12:09:26.193Z,18.50
2018-09-29T12:11:54.681Z,18.40
2018-09-29T12:14:24.033Z,18.40
2018-09-29T12:16:52.545Z,18.60
2018-09-29T12:19:21.146Z,18.50
2018-09-29T12:21:49.602Z,19.10
2018-09-29T12:24:18.101Z,18.80
2018-09-29T12:26:46.669Z,19.10
2018-09-29T12:29:16.378Z,19.20
2018-09-29T12:31:45.140Z,19.00
2018-09-29T12:34:13.641Z,19.20
2018-09-29T12:36:42.185Z,19.00
2018-09-29T12:39:11.773Z,18.90
2018-09-29T12:41:40.328Z,19.00
2018-09-29T12:44:08.844Z,18.80
2018-09-29T12:46:37.356Z,19.50
2018-09-29T12:49:05.975Z,19.70
2018-09-29T12:51:34.484Z,18.90
2018-09-29T12:54:03.049Z,19.10
2018-09-29T12:56:31.547Z,19.50
2018-09-29T12:59:00.912Z,19.80
2018-09-29T13:01:29.249Z,20.10
2018-09-29T13:03:57.744Z,19.90
2018-09-29T13:06:26.261Z,19.50
2018-09-29T13:08:55.381Z,19.50
2018-09-29T13:11:23.880Z,19.50
2018-09-29T13:13:52.665Z,19.10
2018-09-29T13:16:21.183Z,19.50
2018-09-29T13:18:49.705Z,19.50
2018-09-29T13:21:23.872Z,19.60
2018-09-29T13:23:52.363Z,19.70
2018-09-29T13:26:21.372Z,19.50
2018-09-29T13:28:50.302Z,19.60
2018-09-29T13:31:19.271Z,19.80
2018-09-29T13:33:48.516Z,20.00
2018-09-29T13:36:18.435Z,20.10
2018-09-29T13:38:48.846Z,20.40
2018-09-29T13:41:17.942Z,20.00
2018-09-29T13:43:46.506Z,19.60
2018-09-29T13:46:15.707Z,19.90
2018-09-29T13:48:44.220Z,20.30
2018-09-29T13:51:13.387Z,19.90
2018-09-29T13:53:41.942Z,19.80
2018-09-29T13:56:10.350Z,20.00
2018-09-29T13:58:39.157Z,19.70
2018-09-29T14:01:07.651Z,19.80
2018-09-29T14:03:36.379Z,20.10
2018-09-29T14:06:04.864Z,20.20
2018-09-29T14:08:33.397Z,20.10
2018-09-29T14:11:01.930Z,20.00
2018-09-29T14:13:31.480Z,20.10
2018-09-29T14:16:00.013Z,20.20
2018-09-29T14:18:28.481Z,19.60
2018-09-29T14:20:57.815Z,19.40
2018-09-29T14:23:26.349Z,19.50
2018-09-29T14:25:54.875Z,19.80
2018-09-29T14:28:23.463Z,19.80
2018-09-29T14:30:52.818Z,19.50
2018-09-29T14:33:21.370Z,19.80
2018-09-29T14:35:49.924Z,19.90
2018-09-29T14:38:18.479Z,19.70
2018-09-29T14:40:47.061Z,19.60
2018-09-29T14:43:16.008Z,19.60
2018-09-29T14:45:45.112Z,19.50
2018-09-29T14:48:13.649Z,19.30
2018-09-29T14:50:42.289Z,19.80
2018-09-29T14:53:11.689Z,19.80
2018-09-29T14:55:40.213Z,19.50
2018-09-29T14:58:08.867Z,19.50
2018-09-29T15:00:37.316Z,19.20
2018-09-29T15:03:05.858Z,18.80
2018-09-29T15:05:34.402Z,19.00
2018-09-29T15:08:02.893Z,18.80
2018-09-29T15:10:31.449Z,18.40
2018-09-29T15:13:00.043Z,18.20
2018-09-29T15:15:29.193Z,18.30
2018-09-29T15:17:57.781Z,18.10
2018-09-29T15:20:26.375Z,18.00
2018-09-29T15:22:54.905Z,18.00
2018-09-29T15:25:23.457Z,17.70
2018-09-29T15:27:51.983Z,17.90
2018-09-29T15:30:20.558Z,17.90
2018-09-29T15:32:49.081Z,17.70
2018-09-29T15:35:17.567Z,17.90
2018-09-29T15:37:46.042Z,17.90
2018-09-29T15:40:15.445Z,17.60
2018-09-29T15:42:44.115Z,17.60
2018-09-29T15:45:12.540Z,17.50
2018-09-29T15:47:41.069Z,17.50
2018-09-29T15:50:09.582Z,17.50
2018-09-29T15:52:38.085Z,17.60
2018-09-29T15:55:06.687Z,17.50
2018-09-29T15:57:35.210Z,17.40
2018-09-29T16:00:03.864Z,17.30
2018-09-29T16:02:32.332Z,17.20
2018-09-29T16:05:00.787Z,17.30
2018-09-29T16:07:29.279Z,17.30
2018-09-29T16:09:57.764Z,17.20
2018-09-29T16:12:26.309Z,17.20
2018-09-29T16:14:54.827Z,17.20
2018-09-29T16:17:23.304Z,16.90
2018-09-29T16:19:51.812Z,16.90
2018-09-29T16:22:20.392Z,16.90
2018-09-29T16:24:48.940Z,16.90
2018-09-29T16:27:17.422Z,16.60
2018-09-29T16:29:45.940Z,16.50
2018-09-29T16:32:14.501Z,16.60
2018-09-29T16:34:43.018Z,16.50
2018-09-29T16:37:11.493Z,16.40
2018-09-29T16:39:40.029Z,16.40
2018-09-29T16:42:08.550Z,16.40
2018-09-29T16:44:37.060Z,16.00
2018-09-29T16:47:05.626Z,16.00
2018-09-29T16:49:34.106Z,16.10
2018-09-29T16:52:03.452Z,16.00
2018-09-29T16:54:31.945Z,16.00
2018-09-29T16:57:00.401Z,16.00
2018-09-29T16:59:28.863Z,16.00
2018-09-29T17:01:57.444Z,15.90
2018-09-29T17:04:26.002Z,15.80
2018-09-29T17:06:54.490Z,15.80
2018-09-29T17:09:22.961Z,15.70
2018-09-29T17:11:51.484Z,15.70
2018-09-29T17:14:20.006Z,15.70
2018-09-29T17:16:48.528Z,15.60
2018-09-29T17:19:17.019Z,15.50
2018-09-29T17:21:45.598Z,15.50
2018-09-29T17:24:14.092Z,15.40
2018-09-29T17:26:42.660Z,15.30
2018-09-29T17:29:11.198Z,15.30
2018-09-29T17:31:39.738Z,15.30
2018-09-29T17:34:09.033Z,15.30
2018-09-29T17:36:37.558Z,15.40
2018-09-29T17:39:08.212Z,15.30
2018-09-29T17:41:36.680Z,15.20
2018-09-29T17:44:05.184Z,15.00
2018-09-29T17:46:33.853Z,15.00
2018-09-29T17:49:02.725Z,15.00
2018-09-29T17:51:31.242Z,14.90
2018-09-29T17:53:59.841Z,14.80
2018-09-29T17:56:28.336Z,14.80
2018-09-29T17:58:56.860Z,14.80
2018-09-29T18:01:25.336Z,14.80
2018-09-29T18:03:53.860Z,14.60
2018-09-29T18:06:22.435Z,14.50
2018-09-29T18:08:50.937Z,14.40
2018-09-29T18:11:19.471Z,14.40
2018-09-29T18:13:48.039Z,14.30
2018-09-29T18:16:16.483Z,14.30
2018-09-29T18:18:44.974Z,14.20
2018-09-29T18:21:13.488Z,14.20
2018-09-29T18:23:42.995Z,14.20
2018-09-29T18:26:11.671Z,14.10
2018-09-29T18:28:40.251Z,14.10
2018-09-29T18:31:08.878Z,14.10
2018-09-29T18:33:37.401Z,14.00
2018-09-29T18:36:05.982Z,14.10
2018-09-29T18:38:34.502Z,14.00
2018-09-29T18:41:02.987Z,14.00
2018-09-29T18:43:31.484Z,13.90
2018-09-29T18:45:59.949Z,13.90
2018-09-29T18:48:28.413Z,13.80
2018-09-29T18:50:57.028Z,13.80
2018-09-29T18:53:25.529Z,13.80
2018-09-29T18:55:54.070Z,13.70
2018-09-29T18:58:22.546Z,13.60
2018-09-29T19:00:51.623Z,13.50
2018-09-29T19:03:20.112Z,13.50
2018-09-29T19:05:48.600Z,13.40
2018-09-29T19:08:17.049Z,13.50
2018-09-29T19:10:45.575Z,13.50
2018-09-29T19:13:14.041Z,13.40
2018-09-29T19:15:42.576Z,13.30
2018-09-29T19:18:11.215Z,13.30
2018-09-29T19:20:39.726Z,13.20
2018-09-29T19:23:09.420Z,13.20
2018-09-29T19:25:38.026Z,13.20
2018-09-29T19:28:06.541Z,13.10
2018-09-29T19:30:35.045Z,13.10
2018-09-29T19:33:04.225Z,13.10
2018-09-29T19:35:32.733Z,13.10
2018-09-29T19:38:01.182Z,13.00
2018-09-29T19:40:29.667Z,13.00
2018-09-29T19:42:58.162Z,13.10
2018-09-29T19:45:27.600Z,13.00
2018-09-29T19:47:56.125Z,12.90
2018-09-29T19:50:24.632Z,12.90
2018-09-29T19:52:53.215Z,12.70
2018-09-29T19:55:21.791Z,12.70
2018-09-29T19:57:50.304Z,12.70
2018-09-29T20:00:18.865Z,12.70
2018-09-29T20:02:47.351Z,12.70
2018-09-29T20:05:16.569Z,12.50
2018-09-29T20:07:45.074Z,12.30
2018-09-29T20:10:13.697Z,12.30
2018-09-29T20:12:42.174Z,12.30
2018-09-29T20:15:10.677Z,12.30
2018-09-29T20:17:39.197Z,12.10
2018-09-29T20:20:07.772Z,12.20
2018-09-29T20:22:36.328Z,12.30
2018-09-29T20:25:04.886Z,12.30
2018-09-29T20:27:33.413Z,12.20
2018-09-29T20:30:01.958Z,12.20
2018-09-29T20:32:30.461Z,12.20
2018-09-29T20:34:58.983Z,12.20
2018-09-29T20:37:27.493Z,12.10
2018-09-29T20:39:55.961Z,12.10
2018-09-29T20:42:24.762Z,12.10
2018-09-29T20:44:53.249Z,12.00
2018-09-29T20:47:21.805Z,12.10
2018-09-29T20:49:51.214Z,12.10
2018-09-29T20:52:20.100Z,12.10
2018-09-29T20:54:49.380Z,12.10
2018-09-29T20:57:18.062Z,12.00
2018-09-29T20:59:46.867Z,11.90
2018-09-29T21:02:15.657Z,11.90
2018-09-29T21:04:44.660Z,11.80
2018-09-29T21:07:13.485Z,11.90
2018-09-29T21:09:42.043Z,11.80
2018-09-29T21:12:10.654Z,11.80
2018-09-29T21:14:39.628Z,11.60
2018-09-29T21:17:08.231Z,11.60
2018-09-29T21:19:36.711Z,11.60
2018-09-29T21:22:07.013Z,11.50
2018-09-29T21:24:36.731Z,11.50
2018-09-29T21:27:05.327Z,11.50
2018-09-29T21:29:34.099Z,11.40
2018-09-29T21:32:02.954Z,11.40
2018-09-29T21:34:31.746Z,11.40
2018-09-29T21:37:00.568Z,11.40
2018-09-29T21:39:29.336Z,11.40
2018-09-29T21:41:58.122Z,11.40
2018-09-29T21:44:26.874Z,11.30
2018-09-29T21:46:55.566Z,11.30
2018-09-29T21:49:24.069Z,11.20
2018-09-29T21:51:52.594Z,11.20
2018-09-29T21:54:21.486Z,11.30
2018-09-29T21:56:49.964Z,11.30
2018-09-29T21:59:18.425Z,11.30
2018-09-29T22:01:46.904Z,11.20
2018-09-29T22:04:15.441Z,11.30
2018-09-29T22:06:44.052Z,11.20
2018-09-29T22:09:16.734Z,11.20
2018-09-29T22:11:45.257Z,11.20
2018-09-29T22:14:13.799Z,11.10
2018-09-29T22:16:42.293Z,11.00
2018-09-29T22:19:10.799Z,11.00
2018-09-29T22:21:39.312Z,11.10
2018-09-29T22:24:08.136Z,10.90
2018-09-29T22:26:36.640Z,11.00
2018-09-29T22:29:05.096Z,11.00
2018-09-29T22:31:33.561Z,11.00
2018-09-29T22:34:02.052Z,10.90
2018-09-29T22:36:30.513Z,10.80
2018-09-29T22:38:59.047Z,10.70
2018-09-29T22:41:27.547Z,10.70
2018-09-29T22:43:56.001Z,10.80
2018-09-29T22:46:24.592Z,10.80
2018-09-29T22:48:53.044Z,10.80
2018-09-29T22:51:21.524Z,10.70
2018-09-29T22:53:50.011Z,10.70
2018-09-29T22:56:18.443Z,10.70
2018-09-29T22:58:46.930Z,10.50
2018-09-29T23:01:15.412Z,10.50
2018-09-29T23:03:43.859Z,10.40
2018-09-29T23:06:12.390Z,10.40
2018-09-29T23:08:40.904Z,10.50
2018-09-29T23:11:09.413Z,10.50
2018-09-29T23:13:37.922Z,10.50
2018-09-29T23:16:06.412Z,10.40
2018-09-29T23:18:34.921Z,10.30
2018-09-29T23:21:03.411Z,10.20
2018-09-29T23:23:31.867Z,10.20
2018-09-29T23:26:00.338Z,10.20
2018-09-29T23:28:28.816Z,10.10
2018-09-29T23:30:57.276Z,10.20
2018-09-29T23:33:25.700Z,10.20
2018-09-29T23:35:54.420Z,10.20
2018-09-29T23:38:22.900Z,10.10
2018-09-29T23:40:51.366Z,10.20
2018-09-29T23:43:19.862Z,10.10
2018-09-29T23:45:48.354Z,10.00
2018-09-29T23:48:16.830Z,10.00
2018-09-29T23:50:45.320Z,10.10
2018-09-29T23:53:13.763Z,10.00
2018-09-29T23:55:42.255Z,10.00
2018-09-29T23:58:10.984Z,9.90
